Archival Weather

Snohomish County (Paine Fld)

Everett, Washington (KPAE)

Report from: Saturday, November 11, 2023 3:53 PM PST
Current time: Monday, June 17, 2024 12:35 AM PDT

Current weather – Weather history – Daily summaries
Weather forecast

Temperature10.6°C (51.1°F)
Dew point5.6°C (42.1°F)
Winds 16 kts (8.2 m/s, 18.4 mph) South-Southwest (200°)
Wind gusts 29 kts (14.9 m/s, 33.4 mph)
Peak wind 33 kts (17 m/s, 38 mph) South-Southwest (200°) at 23:38
Visibility10 mi. (16.1 km)
Clouds Few clouds 2,000 ft. (610 m)
Altimeter29.94 in.Hg (1014 mB)
Relative humidity71 %
Density altitude-418 ft. (-127 m)
Sea-level pressure101.4 kPa (1014 mB, 29.94 in.Hg)
Max temp last 6 hours12.2°C (54.0°F)
Min temp last 6 hours8.9°C (48.0°F)
Remarks Automated weather observing station with precipitation discriminator
Pressure rising more slowly
Flight conditions Visual Meteorological Conditions
Raw dataKPAE 112353Z 20016G29KT 10SM FEW020 11/06 A2994 RMK AO2 PK WND 20033/2338 SLP140 T01060056 10122 20089 51013
An error has occurred. This application may no longer respond until reloaded. Reload 🗙